sensor_id;sensor_type;location;lat;lon;timestamp;P1;durP1;ratioP1;P2;durP2;ratioP2
17347;SDS011;8791;50.876;4.342;2023-02-28T00:01:17;10.27;;;4.83;;
17347;SDS011;8791;50.876;4.342;2023-02-28T00:03:44;10.43;;;4.37;;
17347;SDS011;8791;50.876;4.342;2023-02-28T00:06:11;5.67;;;4.60;;
17347;SDS011;8791;50.876;4.342;2023-02-28T00:08:40;8.80;;;4.13;;
17347;SDS011;8791;50.876;4.342;2023-02-28T00:11:07;14.63;;;4.33;;
17347;SDS011;8791;50.876;4.342;2023-02-28T00:13:36;9.57;;;4.10;;
17347;SDS011;8791;50.876;4.342;2023-02-28T00:16:05;8.33;;;5.33;;
17347;SDS011;8791;50.876;4.342;2023-02-28T00:18:34;8.77;;;5.00;;
17347;SDS011;8791;50.876;4.342;2023-02-28T00:21:01;8.77;;;5.33;;
17347;SDS011;8791;50.876;4.342;2023-02-28T00:23:28;6.17;;;4.87;;
17347;SDS011;8791;50.876;4.342;2023-02-28T00:25:56;6.63;;;5.03;;
17347;SDS011;8791;50.876;4.342;2023-02-28T00:28:23;7.93;;;4.83;;
17347;SDS011;8791;50.876;4.342;2023-02-28T00:30:49;5.80;;;4.63;;
17347;SDS011;8791;50.876;4.342;2023-02-28T00:33:16;10.20;;;5.60;;
17347;SDS011;8791;50.876;4.342;2023-02-28T00:35:43;10.47;;;5.13;;
17347;SDS011;8791;50.876;4.342;2023-02-28T00:38:12;11.13;;;4.90;;
17347;SDS011;8791;50.876;4.342;2023-02-28T00:40:38;6.20;;;5.20;;
17347;SDS011;8791;50.876;4.342;2023-02-28T00:43:07;6.70;;;4.83;;
17347;SDS011;8791;50.876;4.342;2023-02-28T00:45:33;6.23;;;5.00;;
17347;SDS011;8791;50.876;4.342;2023-02-28T00:48:00;6.70;;;5.17;;
17347;SDS011;8791;50.876;4.342;2023-02-28T00:50:27;12.43;;;4.40;;
17347;SDS011;8791;50.876;4.342;2023-02-28T00:52:54;7.63;;;4.83;;
17347;SDS011;8791;50.876;4.342;2023-02-28T00:55:21;7.77;;;5.43;;
17347;SDS011;8791;50.876;4.342;2023-02-28T00:57:48;6.50;;;5.03;;
17347;SDS011;8791;50.876;4.342;2023-02-28T01:00:16;8.73;;;5.30;;
17347;SDS011;8791;50.876;4.342;2023-02-28T01:02:44;6.93;;;4.83;;
17347;SDS011;8791;50.876;4.342;2023-02-28T01:05:10;10.40;;;5.37;;
17347;SDS011;8791;50.876;4.342;2023-02-28T01:07:37;8.93;;;5.20;;
17347;SDS011;8791;50.876;4.342;2023-02-28T01:10:04;5.70;;;4.93;;
17347;SDS011;8791;50.876;4.342;2023-02-28T01:12:32;9.20;;;5.37;;
17347;SDS011;8791;50.876;4.342;2023-02-28T01:14:58;9.47;;;5.20;;
17347;SDS011;8791;50.876;4.342;2023-02-28T01:17:27;9.03;;;5.00;;
17347;SDS011;8791;50.876;4.342;2023-02-28T01:19:53;9.57;;;5.40;;
17347;SDS011;8791;50.876;4.342;2023-02-28T01:22:21;6.53;;;5.17;;
17347;SDS011;8791;50.876;4.342;2023-02-28T01:24:48;9.07;;;5.30;;
17347;SDS011;8791;50.876;4.342;2023-02-28T01:27:14;9.47;;;5.33;;
17347;SDS011;8791;50.876;4.342;2023-02-28T01:29:41;7.23;;;5.33;;
17347;SDS011;8791;50.876;4.342;2023-02-28T01:32:08;16.27;;;5.47;;
17347;SDS011;8791;50.876;4.342;2023-02-28T01:34:36;10.00;;;5.47;;
17347;SDS011;8791;50.876;4.342;2023-02-28T01:37:03;8.80;;;5.57;;
17347;SDS011;8791;50.876;4.342;2023-02-28T01:39:30;6.27;;;5.57;;
17347;SDS011;8791;50.876;4.342;2023-02-28T01:41:57;6.17;;;5.17;;
17347;SDS011;8791;50.876;4.342;2023-02-28T01:47:28;12.27;;;5.70;;
17347;SDS011;8791;50.876;4.342;2023-02-28T01:49:59;10.87;;;5.37;;
17347;SDS011;8791;50.876;4.342;2023-02-28T01:52:28;7.53;;;5.87;;
17347;SDS011;8791;50.876;4.342;2023-02-28T01:54:56;8.63;;;5.60;;
17347;SDS011;8791;50.876;4.342;2023-02-28T01:57:26;7.30;;;5.43;;
17347;SDS011;8791;50.876;4.342;2023-02-28T02:00:03;8.63;;;6.17;;
17347;SDS011;8791;50.876;4.342;2023-02-28T02:02:34;7.20;;;5.60;;
17347;SDS011;8791;50.876;4.342;2023-02-28T02:05:06;9.90;;;5.80;;
17347;SDS011;8791;50.876;4.342;2023-02-28T02:07:36;8.30;;;5.37;;
17347;SDS011;8791;50.876;4.342;2023-02-28T02:10:05;12.70;;;6.40;;
17347;SDS011;8791;50.876;4.342;2023-02-28T02:12:41;9.50;;;6.40;;
17347;SDS011;8791;50.876;4.342;2023-02-28T02:15:26;9.23;;;6.00;;
17347;SDS011;8791;50.876;4.342;2023-02-28T02:17:59;8.23;;;6.67;;
17347;SDS011;8791;50.876;4.342;2023-02-28T02:20:42;12.80;;;6.80;;
17347;SDS011;8791;50.876;4.342;2023-02-28T02:23:27;7.30;;;6.43;;
17347;SDS011;8791;50.876;4.342;2023-02-28T02:26:21;7.50;;;6.30;;
17347;SDS011;8791;50.876;4.342;2023-02-28T02:35:02;10.53;;;6.43;;
17347;SDS011;8791;50.876;4.342;2023-02-28T02:37:39;12.47;;;6.97;;
17347;SDS011;8791;50.876;4.342;2023-02-28T02:40:16;12.67;;;6.53;;
17347;SDS011;8791;50.876;4.342;2023-02-28T02:42:50;10.80;;;7.13;;
17347;SDS011;8791;50.876;4.342;2023-02-28T02:45:23;14.03;;;6.93;;
17347;SDS011;8791;50.876;4.342;2023-02-28T02:47:53;10.57;;;6.87;;
17347;SDS011;8791;50.876;4.342;2023-02-28T02:50:24;9.30;;;7.20;;
17347;SDS011;8791;50.876;4.342;2023-02-28T02:52:55;10.10;;;6.87;;
17347;SDS011;8791;50.876;4.342;2023-02-28T02:55:26;12.83;;;7.13;;
17347;SDS011;8791;50.876;4.342;2023-02-28T02:57:53;13.03;;;7.63;;
17347;SDS011;8791;50.876;4.342;2023-02-28T03:00:26;16.10;;;7.97;;
17347;SDS011;8791;50.876;4.342;2023-02-28T03:02:59;14.90;;;7.77;;
17347;SDS011;8791;50.876;4.342;2023-02-28T03:05:29;12.60;;;8.20;;
17347;SDS011;8791;50.876;4.342;2023-02-28T03:08:02;10.40;;;7.60;;
17347;SDS011;8791;50.876;4.342;2023-02-28T03:10:34;14.70;;;7.67;;
17347;SDS011;8791;50.876;4.342;2023-02-28T03:13:09;12.10;;;7.77;;
17347;SDS011;8791;50.876;4.342;2023-02-28T03:15:49;10.07;;;7.70;;
17347;SDS011;8791;50.876;4.342;2023-02-28T03:18:24;12.53;;;7.87;;
17347;SDS011;8791;50.876;4.342;2023-02-28T03:21:01;14.60;;;8.07;;
17347;SDS011;8791;50.876;4.342;2023-02-28T03:23:35;11.50;;;8.50;;
17347;SDS011;8791;50.876;4.342;2023-02-28T03:26:11;14.97;;;7.60;;
17347;SDS011;8791;50.876;4.342;2023-02-28T03:28:46;10.27;;;7.23;;
17347;SDS011;8791;50.876;4.342;2023-02-28T03:31:20;11.23;;;7.30;;
17347;SDS011;8791;50.876;4.342;2023-02-28T03:33:54;15.87;;;7.47;;
17347;SDS011;8791;50.876;4.342;2023-02-28T03:36:27;14.57;;;8.27;;
17347;SDS011;8791;50.876;4.342;2023-02-28T03:38:57;12.70;;;7.47;;
17347;SDS011;8791;50.876;4.342;2023-02-28T03:41:29;16.07;;;8.23;;
17347;SDS011;8791;50.876;4.342;2023-02-28T03:43:59;10.80;;;7.30;;
17347;SDS011;8791;50.876;4.342;2023-02-28T03:46:31;13.80;;;8.00;;
17347;SDS011;8791;50.876;4.342;2023-02-28T03:49:03;9.43;;;7.50;;
17347;SDS011;8791;50.876;4.342;2023-02-28T03:51:35;12.37;;;7.80;;
17347;SDS011;8791;50.876;4.342;2023-02-28T03:54:05;10.27;;;8.03;;
17347;SDS011;8791;50.876;4.342;2023-02-28T03:56:37;13.97;;;8.93;;
17347;SDS011;8791;50.876;4.342;2023-02-28T03:59:07;12.77;;;7.50;;
17347;SDS011;8791;50.876;4.342;2023-02-28T04:01:40;10.63;;;8.53;;
17347;SDS011;8791;50.876;4.342;2023-02-28T04:04:09;15.00;;;8.13;;
17347;SDS011;8791;50.876;4.342;2023-02-28T04:06:38;14.87;;;8.30;;
17347;SDS011;8791;50.876;4.342;2023-02-28T04:09:06;13.67;;;8.50;;
17347;SDS011;8791;50.876;4.342;2023-02-28T04:11:35;9.40;;;7.80;;
17347;SDS011;8791;50.876;4.342;2023-02-28T04:14:03;13.50;;;8.13;;
17347;SDS011;8791;50.876;4.342;2023-02-28T04:16:30;12.47;;;8.40;;
17347;SDS011;8791;50.876;4.342;2023-02-28T04:18:59;11.97;;;7.83;;
17347;SDS011;8791;50.876;4.342;2023-02-28T04:21:28;12.57;;;8.53;;
17347;SDS011;8791;50.876;4.342;2023-02-28T04:23:56;13.03;;;8.23;;
17347;SDS011;8791;50.876;4.342;2023-02-28T04:26:25;16.23;;;10.93;;
17347;SDS011;8791;50.876;4.342;2023-02-28T04:28:55;13.20;;;8.50;;
17347;SDS011;8791;50.876;4.342;2023-02-28T04:31:22;10.60;;;8.10;;
17347;SDS011;8791;50.876;4.342;2023-02-28T04:33:49;13.57;;;9.27;;
17347;SDS011;8791;50.876;4.342;2023-02-28T04:36:16;14.37;;;8.43;;
17347;SDS011;8791;50.876;4.342;2023-02-28T04:38:44;16.50;;;8.80;;
17347;SDS011;8791;50.876;4.342;2023-02-28T04:41:13;13.67;;;8.90;;
17347;SDS011;8791;50.876;4.342;2023-02-28T04:43:50;17.67;;;8.40;;
17347;SDS011;8791;50.876;4.342;2023-02-28T04:46:17;13.03;;;8.80;;
17347;SDS011;8791;50.876;4.342;2023-02-28T04:48:48;16.20;;;8.53;;
17347;SDS011;8791;50.876;4.342;2023-02-28T04:51:16;16.97;;;8.73;;
17347;SDS011;8791;50.876;4.342;2023-02-28T04:53:46;14.00;;;8.33;;
17347;SDS011;8791;50.876;4.342;2023-02-28T04:56:23;12.33;;;8.80;;
17347;SDS011;8791;50.876;4.342;2023-02-28T04:58:49;13.33;;;8.83;;
17347;SDS011;8791;50.876;4.342;2023-02-28T05:01:19;16.47;;;8.40;;
17347;SDS011;8791;50.876;4.342;2023-02-28T05:03:48;16.00;;;7.93;;
17347;SDS011;8791;50.876;4.342;2023-02-28T05:06:15;10.80;;;8.50;;
17347;SDS011;8791;50.876;4.342;2023-02-28T05:08:43;13.80;;;8.13;;
17347;SDS011;8791;50.876;4.342;2023-02-28T05:11:13;12.17;;;8.30;;
17347;SDS011;8791;50.876;4.342;2023-02-28T05:13:43;10.60;;;8.17;;
17347;SDS011;8791;50.876;4.342;2023-02-28T05:16:11;18.07;;;8.47;;
17347;SDS011;8791;50.876;4.342;2023-02-28T05:18:37;20.23;;;7.90;;
17347;SDS011;8791;50.876;4.342;2023-02-28T05:21:04;17.67;;;8.50;;
17347;SDS011;8791;50.876;4.342;2023-02-28T05:23:31;17.97;;;8.03;;
17347;SDS011;8791;50.876;4.342;2023-02-28T05:25:58;20.57;;;9.33;;
17347;SDS011;8791;50.876;4.342;2023-02-28T05:28:25;16.80;;;8.33;;
17347;SDS011;8791;50.876;4.342;2023-02-28T05:30:53;16.33;;;9.00;;
17347;SDS011;8791;50.876;4.342;2023-02-28T05:33:20;12.00;;;7.90;;
17347;SDS011;8791;50.876;4.342;2023-02-28T05:35:47;24.93;;;11.20;;
17347;SDS011;8791;50.876;4.342;2023-02-28T05:38:14;13.80;;;8.83;;
17347;SDS011;8791;50.876;4.342;2023-02-28T05:40:41;23.60;;;8.80;;
17347;SDS011;8791;50.876;4.342;2023-02-28T05:43:09;17.20;;;8.17;;
17347;SDS011;8791;50.876;4.342;2023-02-28T05:45:37;12.57;;;7.57;;
17347;SDS011;8791;50.876;4.342;2023-02-28T05:48:06;15.43;;;8.60;;
17347;SDS011;8791;50.876;4.342;2023-02-28T05:50:34;28.10;;;8.30;;
17347;SDS011;8791;50.876;4.342;2023-02-28T05:53:01;16.70;;;8.57;;
17347;SDS011;8791;50.876;4.342;2023-02-28T05:55:27;11.17;;;8.10;;
17347;SDS011;8791;50.876;4.342;2023-02-28T05:57:54;16.93;;;8.60;;
17347;SDS011;8791;50.876;4.342;2023-02-28T06:00:21;16.87;;;8.37;;
17347;SDS011;8791;50.876;4.342;2023-02-28T06:02:49;12.23;;;8.37;;
17347;SDS011;8791;50.876;4.342;2023-02-28T06:05:18;20.87;;;10.03;;
17347;SDS011;8791;50.876;4.342;2023-02-28T06:07:45;14.23;;;8.23;;
17347;SDS011;8791;50.876;4.342;2023-02-28T06:10:12;10.23;;;7.53;;
17347;SDS011;8791;50.876;4.342;2023-02-28T06:12:39;13.47;;;8.37;;
17347;SDS011;8791;50.876;4.342;2023-02-28T06:15:07;12.97;;;8.17;;
17347;SDS011;8791;50.876;4.342;2023-02-28T06:17:37;11.93;;;7.27;;
17347;SDS011;8791;50.876;4.342;2023-02-28T06:20:05;14.30;;;7.60;;
17347;SDS011;8791;50.876;4.342;2023-02-28T06:22:34;13.20;;;8.10;;
17347;SDS011;8791;50.876;4.342;2023-02-28T06:25:01;13.27;;;8.30;;
17347;SDS011;8791;50.876;4.342;2023-02-28T06:27:28;12.93;;;7.87;;
17347;SDS011;8791;50.876;4.342;2023-02-28T06:29:56;15.60;;;7.97;;
17347;SDS011;8791;50.876;4.342;2023-02-28T06:32:23;16.27;;;8.43;;
17347;SDS011;8791;50.876;4.342;2023-02-28T06:34:50;11.73;;;7.30;;
17347;SDS011;8791;50.876;4.342;2023-02-28T06:37:18;17.53;;;7.33;;
17347;SDS011;8791;50.876;4.342;2023-02-28T06:39:46;10.53;;;7.77;;
17347;SDS011;8791;50.876;4.342;2023-02-28T06:42:13;12.53;;;7.90;;
17347;SDS011;8791;50.876;4.342;2023-02-28T06:44:40;16.03;;;7.60;;
17347;SDS011;8791;50.876;4.342;2023-02-28T06:47:08;10.93;;;7.33;;
17347;SDS011;8791;50.876;4.342;2023-02-28T06:49:34;15.97;;;8.33;;
17347;SDS011;8791;50.876;4.342;2023-02-28T06:52:02;13.77;;;7.60;;
17347;SDS011;8791;50.876;4.342;2023-02-28T06:54:29;10.73;;;7.40;;
17347;SDS011;8791;50.876;4.342;2023-02-28T06:56:58;12.57;;;7.77;;
17347;SDS011;8791;50.876;4.342;2023-02-28T06:59:25;10.80;;;7.33;;
17347;SDS011;8791;50.876;4.342;2023-02-28T07:01:52;11.57;;;7.53;;
17347;SDS011;8791;50.876;4.342;2023-02-28T07:04:23;10.47;;;7.63;;
17347;SDS011;8791;50.876;4.342;2023-02-28T07:06:55;9.37;;;7.83;;
17347;SDS011;8791;50.876;4.342;2023-02-28T07:09:22;15.23;;;8.37;;
17347;SDS011;8791;50.876;4.342;2023-02-28T07:11:49;14.37;;;7.13;;
17347;SDS011;8791;50.876;4.342;2023-02-28T07:14:17;10.57;;;7.60;;
17347;SDS011;8791;50.876;4.342;2023-02-28T07:16:44;19.60;;;7.97;;
17347;SDS011;8791;50.876;4.342;2023-02-28T07:19:11;15.37;;;7.60;;
17347;SDS011;8791;50.876;4.342;2023-02-28T07:21:38;14.33;;;7.37;;
17347;SDS011;8791;50.876;4.342;2023-02-28T07:24:05;16.57;;;7.90;;
17347;SDS011;8791;50.876;4.342;2023-02-28T07:26:32;11.63;;;7.27;;
17347;SDS011;8791;50.876;4.342;2023-02-28T07:29:00;15.80;;;7.70;;
17347;SDS011;8791;50.876;4.342;2023-02-28T07:31:28;20.67;;;7.73;;
17347;SDS011;8791;50.876;4.342;2023-02-28T07:33:55;13.70;;;7.30;;
17347;SDS011;8791;50.876;4.342;2023-02-28T07:36:22;13.53;;;7.43;;
17347;SDS011;8791;50.876;4.342;2023-02-28T07:38:49;20.00;;;7.67;;
17347;SDS011;8791;50.876;4.342;2023-02-28T07:41:16;14.57;;;7.23;;
17347;SDS011;8791;50.876;4.342;2023-02-28T07:43:44;11.37;;;7.47;;
17347;SDS011;8791;50.876;4.342;2023-02-28T07:46:11;20.13;;;8.07;;
17347;SDS011;8791;50.876;4.342;2023-02-28T07:48:42;14.57;;;7.13;;
17347;SDS011;8791;50.876;4.342;2023-02-28T07:51:10;14.90;;;7.00;;
17347;SDS011;8791;50.876;4.342;2023-02-28T07:53:37;10.67;;;5.93;;
17347;SDS011;8791;50.876;4.342;2023-02-28T07:56:04;10.53;;;6.27;;
17347;SDS011;8791;50.876;4.342;2023-02-28T07:58:32;15.27;;;6.33;;
17347;SDS011;8791;50.876;4.342;2023-02-28T08:01:04;12.43;;;6.00;;
17347;SDS011;8791;50.876;4.342;2023-02-28T08:03:31;11.07;;;5.53;;
17347;SDS011;8791;50.876;4.342;2023-02-28T08:05:59;13.23;;;6.20;;
17347;SDS011;8791;50.876;4.342;2023-02-28T08:08:27;4.83;;;4.30;;
17347;SDS011;8791;50.876;4.342;2023-02-28T08:10:57;9.87;;;4.23;;
17347;SDS011;8791;50.876;4.342;2023-02-28T08:13:25;7.77;;;5.03;;
17347;SDS011;8791;50.876;4.342;2023-02-28T08:15:52;8.03;;;4.63;;
17347;SDS011;8791;50.876;4.342;2023-02-28T08:18:19;9.20;;;4.40;;
17347;SDS011;8791;50.876;4.342;2023-02-28T08:20:47;5.60;;;3.90;;
17347;SDS011;8791;50.876;4.342;2023-02-28T08:23:15;4.53;;;3.87;;
17347;SDS011;8791;50.876;4.342;2023-02-28T08:25:42;5.53;;;3.47;;
17347;SDS011;8791;50.876;4.342;2023-02-28T08:28:09;5.17;;;3.80;;
17347;SDS011;8791;50.876;4.342;2023-02-28T08:30:35;6.27;;;4.47;;
17347;SDS011;8791;50.876;4.342;2023-02-28T08:33:05;10.13;;;4.10;;
17347;SDS011;8791;50.876;4.342;2023-02-28T08:35:32;10.33;;;3.87;;
17347;SDS011;8791;50.876;4.342;2023-02-28T08:38:02;4.77;;;3.70;;
17347;SDS011;8791;50.876;4.342;2023-02-28T08:40:30;5.37;;;3.67;;
17347;SDS011;8791;50.876;4.342;2023-02-28T08:42:57;5.77;;;4.00;;
17347;SDS011;8791;50.876;4.342;2023-02-28T08:45:24;5.77;;;3.50;;
17347;SDS011;8791;50.876;4.342;2023-02-28T08:47:51;5.17;;;3.70;;
17347;SDS011;8791;50.876;4.342;2023-02-28T08:50:20;9.53;;;3.67;;
17347;SDS011;8791;50.876;4.342;2023-02-28T08:52:47;5.53;;;3.63;;
17347;SDS011;8791;50.876;4.342;2023-02-28T08:55:13;8.67;;;3.07;;
17347;SDS011;8791;50.876;4.342;2023-02-28T08:57:42;3.23;;;2.83;;
17347;SDS011;8791;50.876;4.342;2023-02-28T09:00:09;5.03;;;3.40;;
17347;SDS011;8791;50.876;4.342;2023-02-28T09:02:38;4.27;;;3.77;;
17347;SDS011;8791;50.876;4.342;2023-02-28T09:05:08;5.20;;;3.67;;
17347;SDS011;8791;50.876;4.342;2023-02-28T09:07:36;4.23;;;3.50;;
17347;SDS011;8791;50.876;4.342;2023-02-28T09:10:03;7.13;;;3.37;;
17347;SDS011;8791;50.876;4.342;2023-02-28T09:12:32;8.27;;;3.80;;
17347;SDS011;8791;50.876;4.342;2023-02-28T09:15:02;5.90;;;3.30;;
17347;SDS011;8791;50.876;4.342;2023-02-28T09:17:29;4.70;;;3.13;;
17347;SDS011;8791;50.876;4.342;2023-02-28T09:19:56;5.97;;;3.00;;
17347;SDS011;8791;50.876;4.342;2023-02-28T09:22:23;4.57;;;3.40;;
17347;SDS011;8791;50.876;4.342;2023-02-28T09:24:50;7.60;;;3.20;;
17347;SDS011;8791;50.876;4.342;2023-02-28T09:27:16;6.37;;;3.27;;
17347;SDS011;8791;50.876;4.342;2023-02-28T09:29:43;4.63;;;3.40;;
17347;SDS011;8791;50.876;4.342;2023-02-28T09:32:11;4.57;;;3.13;;
17347;SDS011;8791;50.876;4.342;2023-02-28T09:34:39;4.50;;;3.50;;
17347;SDS011;8791;50.876;4.342;2023-02-28T09:37:05;4.90;;;3.23;;
17347;SDS011;8791;50.876;4.342;2023-02-28T09:39:32;7.23;;;3.20;;
17347;SDS011;8791;50.876;4.342;2023-02-28T09:41:59;4.13;;;2.73;;
17347;SDS011;8791;50.876;4.342;2023-02-28T09:44:29;2.77;;;2.57;;
17347;SDS011;8791;50.876;4.342;2023-02-28T09:47:00;4.27;;;2.63;;
17347;SDS011;8791;50.876;4.342;2023-02-28T09:49:34;3.27;;;2.90;;
17347;SDS011;8791;50.876;4.342;2023-02-28T09:52:05;6.27;;;2.90;;
17347;SDS011;8791;50.876;4.342;2023-02-28T09:54:36;2.97;;;2.57;;
17347;SDS011;8791;50.876;4.342;2023-02-28T09:57:05;6.73;;;2.30;;
17347;SDS011;8791;50.876;4.342;2023-02-28T10:02:43;3.50;;;2.67;;
17347;SDS011;8791;50.876;4.342;2023-02-28T10:05:21;3.10;;;2.80;;
17347;SDS011;8791;50.876;4.342;2023-02-28T10:08:02;3.03;;;2.37;;
17347;SDS011;8791;50.876;4.342;2023-02-28T10:10:37;4.93;;;2.87;;
17347;SDS011;8791;50.876;4.342;2023-02-28T10:13:13;2.70;;;2.40;;
17347;SDS011;8791;50.876;4.342;2023-02-28T10:15:46;4.60;;;2.80;;
17347;SDS011;8791;50.876;4.342;2023-02-28T10:18:20;4.63;;;2.33;;
17347;SDS011;8791;50.876;4.342;2023-02-28T10:20:53;3.50;;;2.43;;
17347;SDS011;8791;50.876;4.342;2023-02-28T10:23:24;9.27;;;2.97;;
17347;SDS011;8791;50.876;4.342;2023-02-28T10:25:55;4.53;;;2.43;;
17347;SDS011;8791;50.876;4.342;2023-02-28T10:28:25;4.00;;;2.67;;
17347;SDS011;8791;50.876;4.342;2023-02-28T10:30:58;4.07;;;2.57;;
17347;SDS011;8791;50.876;4.342;2023-02-28T10:33:28;4.87;;;2.77;;
17347;SDS011;8791;50.876;4.342;2023-02-28T10:35:57;6.77;;;2.50;;
17347;SDS011;8791;50.876;4.342;2023-02-28T10:38:26;2.87;;;2.40;;
17347;SDS011;8791;50.876;4.342;2023-02-28T10:41:03;5.43;;;2.17;;
17347;SDS011;8791;50.876;4.342;2023-02-28T10:43:31;3.20;;;2.40;;
17347;SDS011;8791;50.876;4.342;2023-02-28T10:45:59;5.37;;;2.00;;
17347;SDS011;8791;50.876;4.342;2023-02-28T10:48:30;2.20;;;1.80;;
17347;SDS011;8791;50.876;4.342;2023-02-28T10:51:01;2.80;;;1.67;;
17347;SDS011;8791;50.876;4.342;2023-02-28T10:53:30;2.00;;;1.80;;
17347;SDS011;8791;50.876;4.342;2023-02-28T10:56:15;1.63;;;1.53;;
17347;SDS011;8791;50.876;4.342;2023-02-28T11:01:35;2.30;;;1.80;;
17347;SDS011;8791;50.876;4.342;2023-02-28T11:04:05;4.77;;;1.87;;
17347;SDS011;8791;50.876;4.342;2023-02-28T11:06:45;1.60;;;1.50;;
17347;SDS011;8791;50.876;4.342;2023-02-28T11:09:16;2.30;;;1.67;;
17347;SDS011;8791;50.876;4.342;2023-02-28T11:11:46;2.03;;;1.60;;
17347;SDS011;8791;50.876;4.342;2023-02-28T11:14:17;2.27;;;2.07;;
17347;SDS011;8791;50.876;4.342;2023-02-28T11:16:47;4.33;;;2.40;;
17347;SDS011;8791;50.876;4.342;2023-02-28T11:19:17;2.17;;;1.63;;
17347;SDS011;8791;50.876;4.342;2023-02-28T11:21:51;2.90;;;2.23;;
17347;SDS011;8791;50.876;4.342;2023-02-28T11:24:22;2.90;;;2.07;;
17347;SDS011;8791;50.876;4.342;2023-02-28T11:26:51;3.90;;;2.33;;
17347;SDS011;8791;50.876;4.342;2023-02-28T11:29:19;4.03;;;2.23;;
17347;SDS011;8791;50.876;4.342;2023-02-28T11:32:01;1.93;;;1.60;;
17347;SDS011;8791;50.876;4.342;2023-02-28T11:34:30;3.73;;;2.60;;
17347;SDS011;8791;50.876;4.342;2023-02-28T11:36:59;8.27;;;2.13;;
17347;SDS011;8791;50.876;4.342;2023-02-28T11:39:30;3.00;;;1.83;;
17347;SDS011;8791;50.876;4.342;2023-02-28T11:42:02;3.83;;;1.80;;
17347;SDS011;8791;50.876;4.342;2023-02-28T11:44:42;2.33;;;1.83;;
17347;SDS011;8791;50.876;4.342;2023-02-28T11:47:21;2.27;;;2.00;;
17347;SDS011;8791;50.876;4.342;2023-02-28T11:50:02;6.50;;;2.33;;
17347;SDS011;8791;50.876;4.342;2023-02-28T11:52:41;3.73;;;1.90;;
17347;SDS011;8791;50.876;4.342;2023-02-28T11:55:16;1.77;;;1.67;;
17347;SDS011;8791;50.876;4.342;2023-02-28T12:03:43;3.80;;;2.17;;
17347;SDS011;8791;50.876;4.342;2023-02-28T12:06:20;4.80;;;1.93;;
17347;SDS011;8791;50.876;4.342;2023-02-28T12:08:56;3.70;;;2.50;;
17347;SDS011;8791;50.876;4.342;2023-02-28T12:11:34;3.77;;;2.00;;
17347;SDS011;8791;50.876;4.342;2023-02-28T12:14:17;3.60;;;2.20;;
17347;SDS011;8791;50.876;4.342;2023-02-28T12:16:58;3.83;;;2.13;;
17347;SDS011;8791;50.876;4.342;2023-02-28T12:19:34;7.67;;;2.37;;
17347;SDS011;8791;50.876;4.342;2023-02-28T12:22:12;2.50;;;2.30;;
17347;SDS011;8791;50.876;4.342;2023-02-28T12:27:48;5.53;;;2.10;;
17347;SDS011;8791;50.876;4.342;2023-02-28T12:30:19;2.13;;;1.93;;
17347;SDS011;8791;50.876;4.342;2023-02-28T12:32:51;2.40;;;2.20;;
17347;SDS011;8791;50.876;4.342;2023-02-28T12:35:22;6.57;;;2.13;;
17347;SDS011;8791;50.876;4.342;2023-02-28T12:37:52;4.87;;;2.70;;
17347;SDS011;8791;50.876;4.342;2023-02-28T12:40:26;2.67;;;2.40;;
17347;SDS011;8791;50.876;4.342;2023-02-28T12:42:58;4.47;;;1.93;;
17347;SDS011;8791;50.876;4.342;2023-02-28T12:45:31;3.80;;;2.17;;
17347;SDS011;8791;50.876;4.342;2023-02-28T12:48:07;4.13;;;2.50;;
17347;SDS011;8791;50.876;4.342;2023-02-28T12:50:38;2.90;;;2.07;;
17347;SDS011;8791;50.876;4.342;2023-02-28T12:53:08;6.73;;;2.37;;
17347;SDS011;8791;50.876;4.342;2023-02-28T12:55:40;6.90;;;2.47;;
17347;SDS011;8791;50.876;4.342;2023-02-28T12:58:13;2.50;;;2.13;;
17347;SDS011;8791;50.876;4.342;2023-02-28T13:00:48;2.60;;;2.30;;
17347;SDS011;8791;50.876;4.342;2023-02-28T13:03:58;2.77;;;2.13;;
17347;SDS011;8791;50.876;4.342;2023-02-28T13:06:50;3.67;;;2.40;;
17347;SDS011;8791;50.876;4.342;2023-02-28T13:09:26;2.87;;;2.10;;
17347;SDS011;8791;50.876;4.342;2023-02-28T13:11:56;10.17;;;2.50;;
17347;SDS011;8791;50.876;4.342;2023-02-28T13:14:25;8.10;;;2.17;;
17347;SDS011;8791;50.876;4.342;2023-02-28T13:16:56;2.53;;;2.03;;
17347;SDS011;8791;50.876;4.342;2023-02-28T13:19:26;2.57;;;2.37;;
17347;SDS011;8791;50.876;4.342;2023-02-28T13:21:56;3.53;;;2.20;;
17347;SDS011;8791;50.876;4.342;2023-02-28T13:24:38;1.90;;;1.60;;
17347;SDS011;8791;50.876;4.342;2023-02-28T13:27:19;2.07;;;1.87;;
17347;SDS011;8791;50.876;4.342;2023-02-28T13:33:20;4.67;;;2.30;;
17347;SDS011;8791;50.876;4.342;2023-02-28T13:35:58;2.63;;;2.20;;
17347;SDS011;8791;50.876;4.342;2023-02-28T13:38:36;2.63;;;2.20;;
17347;SDS011;8791;50.876;4.342;2023-02-28T13:44:11;2.57;;;2.10;;
17347;SDS011;8791;50.876;4.342;2023-02-28T13:49:43;3.73;;;1.97;;
17347;SDS011;8791;50.876;4.342;2023-02-28T13:52:12;3.20;;;2.13;;
17347;SDS011;8791;50.876;4.342;2023-02-28T13:54:48;2.23;;;2.03;;
17347;SDS011;8791;50.876;4.342;2023-02-28T13:57:42;5.57;;;2.20;;
17347;SDS011;8791;50.876;4.342;2023-02-28T14:00:23;6.53;;;2.33;;
17347;SDS011;8791;50.876;4.342;2023-02-28T14:03:06;3.97;;;2.10;;
17347;SDS011;8791;50.876;4.342;2023-02-28T14:08:44;2.20;;;2.00;;
17347;SDS011;8791;50.876;4.342;2023-02-28T14:11:24;2.13;;;1.93;;
17347;SDS011;8791;50.876;4.342;2023-02-28T14:13:53;6.27;;;2.30;;
17347;SDS011;8791;50.876;4.342;2023-02-28T14:16:23;2.20;;;2.00;;
17347;SDS011;8791;50.876;4.342;2023-02-28T14:18:55;2.80;;;2.30;;
17347;SDS011;8791;50.876;4.342;2023-02-28T14:21:25;3.87;;;1.83;;
17347;SDS011;8791;50.876;4.342;2023-02-28T14:27:08;6.37;;;2.20;;
17347;SDS011;8791;50.876;4.342;2023-02-28T14:29:54;6.23;;;2.10;;
17347;SDS011;8791;50.876;4.342;2023-02-28T14:32:43;3.33;;;1.90;;
17347;SDS011;8791;50.876;4.342;2023-02-28T14:35:17;3.87;;;2.20;;
17347;SDS011;8791;50.876;4.342;2023-02-28T14:37:55;2.03;;;1.80;;
17347;SDS011;8791;50.876;4.342;2023-02-28T14:40:25;3.43;;;2.10;;
17347;SDS011;8791;50.876;4.342;2023-02-28T14:42:56;3.40;;;2.13;;
17347;SDS011;8791;50.876;4.342;2023-02-28T14:45:24;3.57;;;2.23;;
17347;SDS011;8791;50.876;4.342;2023-02-28T14:47:56;3.73;;;2.13;;
17347;SDS011;8791;50.876;4.342;2023-02-28T14:50:26;3.90;;;2.83;;
17347;SDS011;8791;50.876;4.342;2023-02-28T14:53:00;2.97;;;2.20;;
17347;SDS011;8791;50.876;4.342;2023-02-28T14:55:28;3.27;;;2.50;;
17347;SDS011;8791;50.876;4.342;2023-02-28T14:57:57;2.73;;;2.37;;
17347;SDS011;8791;50.876;4.342;2023-02-28T15:00:28;2.53;;;2.20;;
17347;SDS011;8791;50.876;4.342;2023-02-28T15:02:58;4.60;;;2.40;;
17347;SDS011;8791;50.876;4.342;2023-02-28T15:05:27;3.73;;;2.80;;
17347;SDS011;8791;50.876;4.342;2023-02-28T15:08:06;3.53;;;2.40;;
17347;SDS011;8791;50.876;4.342;2023-02-28T15:10:37;3.17;;;2.37;;
17347;SDS011;8791;50.876;4.342;2023-02-28T15:13:06;3.87;;;2.33;;
17347;SDS011;8791;50.876;4.342;2023-02-28T15:15:42;3.87;;;2.90;;
17347;SDS011;8791;50.876;4.342;2023-02-28T15:18:18;3.57;;;2.60;;
17347;SDS011;8791;50.876;4.342;2023-02-28T15:20:52;2.57;;;2.37;;
17347;SDS011;8791;50.876;4.342;2023-02-28T15:23:19;3.80;;;2.30;;
17347;SDS011;8791;50.876;4.342;2023-02-28T15:25:48;4.03;;;2.53;;
17347;SDS011;8791;50.876;4.342;2023-02-28T15:28:17;7.17;;;3.10;;
17347;SDS011;8791;50.876;4.342;2023-02-28T15:30:54;5.90;;;2.73;;
17347;SDS011;8791;50.876;4.342;2023-02-28T15:33:24;3.00;;;2.50;;
17347;SDS011;8791;50.876;4.342;2023-02-28T15:36:03;4.00;;;2.40;;
17347;SDS011;8791;50.876;4.342;2023-02-28T15:38:33;3.80;;;2.30;;
17347;SDS011;8791;50.876;4.342;2023-02-28T15:41:01;3.30;;;2.60;;
17347;SDS011;8791;50.876;4.342;2023-02-28T15:43:33;6.60;;;2.70;;
17347;SDS011;8791;50.876;4.342;2023-02-28T15:46:03;6.93;;;2.83;;
17347;SDS011;8791;50.876;4.342;2023-02-28T15:48:34;3.93;;;2.50;;
17347;SDS011;8791;50.876;4.342;2023-02-28T15:51:05;4.53;;;2.53;;
17347;SDS011;8791;50.876;4.342;2023-02-28T15:53:36;2.97;;;2.37;;
17347;SDS011;8791;50.876;4.342;2023-02-28T15:56:06;4.00;;;2.77;;